sensor_id;sensor_type;location;lat;lon;timestamp;P1;durP1;ratioP1;P2;durP2;ratioP2
19519;SDS011;9904;52.246;20.898;2022-09-12T00:01:10;6.27;;;2.80;;
19519;SDS011;9904;52.246;20.898;2022-09-12T00:03:41;7.80;;;2.87;;
19519;SDS011;9904;52.246;20.898;2022-09-12T00:06:09;6.93;;;3.20;;
19519;SDS011;9904;52.246;20.898;2022-09-12T00:08:37;8.83;;;2.93;;
19519;SDS011;9904;52.246;20.898;2022-09-12T00:11:05;6.73;;;3.10;;
19519;SDS011;9904;52.246;20.898;2022-09-12T00:13:34;6.87;;;3.50;;
19519;SDS011;9904;52.246;20.898;2022-09-12T00:16:07;7.53;;;2.60;;
19519;SDS011;9904;52.246;20.898;2022-09-12T00:18:39;10.80;;;3.33;;
19519;SDS011;9904;52.246;20.898;2022-09-12T00:21:05;7.93;;;2.40;;
19519;SDS011;9904;52.246;20.898;2022-09-12T00:23:32;11.00;;;2.70;;
19519;SDS011;9904;52.246;20.898;2022-09-12T00:25:58;4.13;;;2.50;;
19519;SDS011;9904;52.246;20.898;2022-09-12T00:28:25;8.00;;;3.27;;
19519;SDS011;9904;52.246;20.898;2022-09-12T00:30:52;8.77;;;3.10;;
19519;SDS011;9904;52.246;20.898;2022-09-12T00:33:18;8.90;;;3.07;;
19519;SDS011;9904;52.246;20.898;2022-09-12T00:35:48;9.40;;;3.00;;
19519;SDS011;9904;52.246;20.898;2022-09-12T00:38:18;8.43;;;2.60;;
19519;SDS011;9904;52.246;20.898;2022-09-12T00:40:45;7.57;;;2.87;;
19519;SDS011;9904;52.246;20.898;2022-09-12T00:43:34;11.23;;;2.63;;
19519;SDS011;9904;52.246;20.898;2022-09-12T00:48:41;10.20;;;3.20;;
19519;SDS011;9904;52.246;20.898;2022-09-12T00:51:10;6.03;;;3.00;;
19519;SDS011;9904;52.246;20.898;2022-09-12T00:53:37;7.53;;;3.27;;
19519;SDS011;9904;52.246;20.898;2022-09-12T00:56:05;6.50;;;2.70;;
19519;SDS011;9904;52.246;20.898;2022-09-12T00:58:42;7.33;;;2.67;;
19519;SDS011;9904;52.246;20.898;2022-09-12T01:01:13;7.50;;;2.90;;
19519;SDS011;9904;52.246;20.898;2022-09-12T01:03:40;8.53;;;3.27;;
19519;SDS011;9904;52.246;20.898;2022-09-12T01:06:24;9.00;;;2.93;;
19519;SDS011;9904;52.246;20.898;2022-09-12T01:08:53;9.63;;;3.00;;
19519;SDS011;9904;52.246;20.898;2022-09-12T01:11:20;7.30;;;2.73;;
19519;SDS011;9904;52.246;20.898;2022-09-12T01:13:47;7.87;;;2.87;;
19519;SDS011;9904;52.246;20.898;2022-09-12T01:16:14;7.60;;;3.10;;
19519;SDS011;9904;52.246;20.898;2022-09-12T01:18:54;6.97;;;3.30;;
19519;SDS011;9904;52.246;20.898;2022-09-12T01:30:19;8.30;;;2.93;;
19519;SDS011;9904;52.246;20.898;2022-09-12T01:33:20;6.50;;;3.10;;
19519;SDS011;9904;52.246;20.898;2022-09-12T01:36:10;9.47;;;3.20;;
19519;SDS011;9904;52.246;20.898;2022-09-12T01:38:49;7.67;;;2.97;;
19519;SDS011;9904;52.246;20.898;2022-09-12T01:41:25;8.40;;;3.43;;
19519;SDS011;9904;52.246;20.898;2022-09-12T01:44:03;12.23;;;3.70;;
19519;SDS011;9904;52.246;20.898;2022-09-12T01:49:23;6.90;;;2.90;;
19519;SDS011;9904;52.246;20.898;2022-09-12T01:54:34;7.07;;;3.40;;
19519;SDS011;9904;52.246;20.898;2022-09-12T01:57:07;9.73;;;3.57;;
19519;SDS011;9904;52.246;20.898;2022-09-12T01:59:39;6.67;;;3.30;;
19519;SDS011;9904;52.246;20.898;2022-09-12T02:02:13;11.47;;;3.30;;
19519;SDS011;9904;52.246;20.898;2022-09-12T02:04:54;8.73;;;3.50;;
19519;SDS011;9904;52.246;20.898;2022-09-12T02:07:26;11.90;;;3.47;;
19519;SDS011;9904;52.246;20.898;2022-09-12T02:09:58;8.40;;;3.63;;
19519;SDS011;9904;52.246;20.898;2022-09-12T02:12:28;10.53;;;3.10;;
19519;SDS011;9904;52.246;20.898;2022-09-12T02:15:01;9.90;;;3.47;;
19519;SDS011;9904;52.246;20.898;2022-09-12T02:17:29;7.50;;;3.17;;
19519;SDS011;9904;52.246;20.898;2022-09-12T02:19:58;5.40;;;3.03;;
19519;SDS011;9904;52.246;20.898;2022-09-12T02:22:29;9.33;;;3.33;;
19519;SDS011;9904;52.246;20.898;2022-09-12T02:24:58;6.10;;;3.43;;
19519;SDS011;9904;52.246;20.898;2022-09-12T02:27:27;6.77;;;3.17;;
19519;SDS011;9904;52.246;20.898;2022-09-12T02:29:57;6.40;;;3.30;;
19519;SDS011;9904;52.246;20.898;2022-09-12T02:32:29;8.27;;;3.43;;
19519;SDS011;9904;52.246;20.898;2022-09-12T02:35:32;10.43;;;2.83;;
19519;SDS011;9904;52.246;20.898;2022-09-12T02:38:07;7.20;;;3.30;;
19519;SDS011;9904;52.246;20.898;2022-09-12T02:40:36;10.57;;;3.40;;
19519;SDS011;9904;52.246;20.898;2022-09-12T02:43:04;7.03;;;3.30;;
19519;SDS011;9904;52.246;20.898;2022-09-12T02:45:31;13.03;;;3.40;;
19519;SDS011;9904;52.246;20.898;2022-09-12T02:48:13;6.70;;;3.43;;
19519;SDS011;9904;52.246;20.898;2022-09-12T02:50:43;8.63;;;3.53;;
19519;SDS011;9904;52.246;20.898;2022-09-12T02:53:10;7.63;;;3.30;;
19519;SDS011;9904;52.246;20.898;2022-09-12T02:55:37;13.90;;;3.80;;
19519;SDS011;9904;52.246;20.898;2022-09-12T02:58:05;7.23;;;3.70;;
19519;SDS011;9904;52.246;20.898;2022-09-12T03:00:41;10.47;;;3.63;;
19519;SDS011;9904;52.246;20.898;2022-09-12T03:06:00;8.70;;;3.93;;
19519;SDS011;9904;52.246;20.898;2022-09-12T03:17:07;7.87;;;3.57;;
19519;SDS011;9904;52.246;20.898;2022-09-12T03:25:13;7.17;;;3.43;;
19519;SDS011;9904;52.246;20.898;2022-09-12T03:30:21;12.27;;;4.07;;
19519;SDS011;9904;52.246;20.898;2022-09-12T03:32:49;9.77;;;3.83;;
19519;SDS011;9904;52.246;20.898;2022-09-12T03:35:17;9.63;;;3.93;;
19519;SDS011;9904;52.246;20.898;2022-09-12T03:37:48;11.77;;;3.87;;
19519;SDS011;9904;52.246;20.898;2022-09-12T03:40:15;8.30;;;3.67;;
19519;SDS011;9904;52.246;20.898;2022-09-12T03:42:42;13.13;;;4.10;;
19519;SDS011;9904;52.246;20.898;2022-09-12T03:45:09;9.23;;;4.20;;
19519;SDS011;9904;52.246;20.898;2022-09-12T03:47:36;13.80;;;4.37;;
19519;SDS011;9904;52.246;20.898;2022-09-12T03:50:03;9.07;;;4.47;;
19519;SDS011;9904;52.246;20.898;2022-09-12T03:52:30;12.97;;;4.73;;
19519;SDS011;9904;52.246;20.898;2022-09-12T03:54:57;9.73;;;4.10;;
19519;SDS011;9904;52.246;20.898;2022-09-12T03:57:24;13.23;;;4.63;;
19519;SDS011;9904;52.246;20.898;2022-09-12T03:59:50;8.07;;;4.40;;
19519;SDS011;9904;52.246;20.898;2022-09-12T04:02:17;15.30;;;3.97;;
19519;SDS011;9904;52.246;20.898;2022-09-12T04:04:43;14.57;;;5.27;;
19519;SDS011;9904;52.246;20.898;2022-09-12T04:07:11;11.43;;;4.13;;
19519;SDS011;9904;52.246;20.898;2022-09-12T04:09:37;11.40;;;4.80;;
19519;SDS011;9904;52.246;20.898;2022-09-12T04:12:04;8.40;;;4.60;;
19519;SDS011;9904;52.246;20.898;2022-09-12T04:14:31;10.90;;;4.90;;
19519;SDS011;9904;52.246;20.898;2022-09-12T04:16:58;16.27;;;4.90;;
19519;SDS011;9904;52.246;20.898;2022-09-12T04:19:25;8.93;;;4.70;;
19519;SDS011;9904;52.246;20.898;2022-09-12T04:21:52;8.83;;;4.97;;
19519;SDS011;9904;52.246;20.898;2022-09-12T04:24:19;8.90;;;5.10;;
19519;SDS011;9904;52.246;20.898;2022-09-12T04:26:45;10.17;;;5.30;;
19519;SDS011;9904;52.246;20.898;2022-09-12T04:29:12;12.27;;;5.10;;
19519;SDS011;9904;52.246;20.898;2022-09-12T04:31:40;12.87;;;5.07;;
19519;SDS011;9904;52.246;20.898;2022-09-12T04:34:07;10.43;;;5.10;;
19519;SDS011;9904;52.246;20.898;2022-09-12T04:36:33;11.20;;;5.07;;
19519;SDS011;9904;52.246;20.898;2022-09-12T04:39:01;12.77;;;5.80;;
19519;SDS011;9904;52.246;20.898;2022-09-12T04:41:30;12.93;;;6.47;;
19519;SDS011;9904;52.246;20.898;2022-09-12T04:44:00;12.10;;;5.43;;
19519;SDS011;9904;52.246;20.898;2022-09-12T04:46:30;10.43;;;5.53;;
19519;SDS011;9904;52.246;20.898;2022-09-12T04:48:58;9.67;;;5.43;;
19519;SDS011;9904;52.246;20.898;2022-09-12T04:51:26;14.53;;;5.60;;
19519;SDS011;9904;52.246;20.898;2022-09-12T04:53:55;12.43;;;5.30;;
19519;SDS011;9904;52.246;20.898;2022-09-12T04:56:23;12.43;;;5.63;;
19519;SDS011;9904;52.246;20.898;2022-09-12T04:58:50;8.87;;;5.50;;
19519;SDS011;9904;52.246;20.898;2022-09-12T05:01:18;14.47;;;5.43;;
19519;SDS011;9904;52.246;20.898;2022-09-12T05:03:47;7.80;;;5.27;;
19519;SDS011;9904;52.246;20.898;2022-09-12T05:06:15;10.50;;;5.57;;
19519;SDS011;9904;52.246;20.898;2022-09-12T05:08:49;11.43;;;6.20;;
19519;SDS011;9904;52.246;20.898;2022-09-12T05:11:17;11.40;;;5.10;;
19519;SDS011;9904;52.246;20.898;2022-09-12T05:13:51;14.73;;;5.30;;
19519;SDS011;9904;52.246;20.898;2022-09-12T05:16:19;12.27;;;5.57;;
19519;SDS011;9904;52.246;20.898;2022-09-12T05:18:46;7.83;;;5.10;;
19519;SDS011;9904;52.246;20.898;2022-09-12T05:21:14;14.73;;;5.57;;
19519;SDS011;9904;52.246;20.898;2022-09-12T05:23:42;16.00;;;5.80;;
19519;SDS011;9904;52.246;20.898;2022-09-12T05:26:12;10.83;;;5.33;;
19519;SDS011;9904;52.246;20.898;2022-09-12T05:28:40;10.60;;;5.60;;
19519;SDS011;9904;52.246;20.898;2022-09-12T05:31:08;9.53;;;5.17;;
19519;SDS011;9904;52.246;20.898;2022-09-12T05:33:37;9.43;;;5.03;;
19519;SDS011;9904;52.246;20.898;2022-09-12T05:36:05;11.47;;;5.60;;
19519;SDS011;9904;52.246;20.898;2022-09-12T05:38:33;14.23;;;5.07;;
19519;SDS011;9904;52.246;20.898;2022-09-12T05:43:32;16.03;;;5.43;;
19519;SDS011;9904;52.246;20.898;2022-09-12T05:46:02;10.23;;;5.40;;
19519;SDS011;9904;52.246;20.898;2022-09-12T05:48:34;11.70;;;5.27;;
19519;SDS011;9904;52.246;20.898;2022-09-12T05:51:03;10.23;;;5.53;;
19519;SDS011;9904;52.246;20.898;2022-09-12T05:53:32;11.10;;;5.80;;
19519;SDS011;9904;52.246;20.898;2022-09-12T05:56:02;11.73;;;5.40;;
19519;SDS011;9904;52.246;20.898;2022-09-12T05:58:29;8.43;;;5.03;;
19519;SDS011;9904;52.246;20.898;2022-09-12T06:01:00;9.67;;;5.30;;
19519;SDS011;9904;52.246;20.898;2022-09-12T06:03:54;10.60;;;5.47;;
19519;SDS011;9904;52.246;20.898;2022-09-12T06:06:22;12.03;;;5.50;;
19519;SDS011;9904;52.246;20.898;2022-09-12T06:08:50;16.87;;;5.63;;
19519;SDS011;9904;52.246;20.898;2022-09-12T06:11:19;14.50;;;6.07;;
19519;SDS011;9904;52.246;20.898;2022-09-12T06:13:47;11.10;;;5.60;;
19519;SDS011;9904;52.246;20.898;2022-09-12T06:16:15;9.63;;;5.67;;
19519;SDS011;9904;52.246;20.898;2022-09-12T06:18:50;13.80;;;5.43;;
19519;SDS011;9904;52.246;20.898;2022-09-12T06:21:19;14.43;;;5.53;;
19519;SDS011;9904;52.246;20.898;2022-09-12T06:23:47;12.63;;;6.00;;
19519;SDS011;9904;52.246;20.898;2022-09-12T06:26:15;13.67;;;5.60;;
19519;SDS011;9904;52.246;20.898;2022-09-12T06:28:42;9.13;;;5.60;;
19519;SDS011;9904;52.246;20.898;2022-09-12T06:31:13;10.47;;;5.87;;
19519;SDS011;9904;52.246;20.898;2022-09-12T06:33:43;11.23;;;6.20;;
19519;SDS011;9904;52.246;20.898;2022-09-12T06:36:11;11.30;;;6.23;;
19519;SDS011;9904;52.246;20.898;2022-09-12T06:38:42;12.47;;;5.80;;
19519;SDS011;9904;52.246;20.898;2022-09-12T06:41:09;12.57;;;6.57;;
19519;SDS011;9904;52.246;20.898;2022-09-12T06:43:37;12.40;;;6.13;;
19519;SDS011;9904;52.246;20.898;2022-09-12T06:46:05;13.70;;;5.30;;
19519;SDS011;9904;52.246;20.898;2022-09-12T06:48:32;13.70;;;6.47;;
19519;SDS011;9904;52.246;20.898;2022-09-12T06:51:05;14.37;;;5.33;;
19519;SDS011;9904;52.246;20.898;2022-09-12T06:53:34;14.47;;;5.73;;
19519;SDS011;9904;52.246;20.898;2022-09-12T06:56:08;8.00;;;5.27;;
19519;SDS011;9904;52.246;20.898;2022-09-12T06:58:36;15.70;;;5.90;;
19519;SDS011;9904;52.246;20.898;2022-09-12T07:01:16;9.83;;;5.63;;
19519;SDS011;9904;52.246;20.898;2022-09-12T07:03:48;12.43;;;5.37;;
19519;SDS011;9904;52.246;20.898;2022-09-12T07:06:19;12.00;;;5.73;;
19519;SDS011;9904;52.246;20.898;2022-09-12T07:08:47;11.90;;;5.40;;
19519;SDS011;9904;52.246;20.898;2022-09-12T07:11:20;7.87;;;5.10;;
19519;SDS011;9904;52.246;20.898;2022-09-12T07:13:53;10.77;;;5.23;;
19519;SDS011;9904;52.246;20.898;2022-09-12T07:16:21;10.40;;;5.03;;
19519;SDS011;9904;52.246;20.898;2022-09-12T07:18:48;11.80;;;5.17;;
19519;SDS011;9904;52.246;20.898;2022-09-12T07:21:19;14.73;;;5.43;;
19519;SDS011;9904;52.246;20.898;2022-09-12T07:23:46;10.73;;;5.00;;
19519;SDS011;9904;52.246;20.898;2022-09-12T07:26:14;12.87;;;5.00;;
19519;SDS011;9904;52.246;20.898;2022-09-12T07:28:41;12.07;;;5.07;;
19519;SDS011;9904;52.246;20.898;2022-09-12T07:31:09;8.17;;;5.00;;
19519;SDS011;9904;52.246;20.898;2022-09-12T07:33:36;10.30;;;4.97;;
19519;SDS011;9904;52.246;20.898;2022-09-12T07:36:04;10.53;;;5.60;;
19519;SDS011;9904;52.246;20.898;2022-09-12T07:38:32;12.03;;;5.13;;
19519;SDS011;9904;52.246;20.898;2022-09-12T07:40:59;13.03;;;5.40;;
19519;SDS011;9904;52.246;20.898;2022-09-12T07:43:26;12.10;;;5.73;;
19519;SDS011;9904;52.246;20.898;2022-09-12T07:45:54;14.47;;;5.40;;
19519;SDS011;9904;52.246;20.898;2022-09-12T07:48:23;12.60;;;7.30;;
19519;SDS011;9904;52.246;20.898;2022-09-12T07:50:56;12.90;;;8.27;;
19519;SDS011;9904;52.246;20.898;2022-09-12T07:53:25;18.07;;;8.57;;
19519;SDS011;9904;52.246;20.898;2022-09-12T07:55:56;9.97;;;6.37;;
19519;SDS011;9904;52.246;20.898;2022-09-12T07:58:22;9.03;;;5.10;;
19519;SDS011;9904;52.246;20.898;2022-09-12T08:00:49;13.53;;;5.87;;
19519;SDS011;9904;52.246;20.898;2022-09-12T08:03:16;8.10;;;4.37;;
19519;SDS011;9904;52.246;20.898;2022-09-12T08:05:42;9.93;;;4.60;;
19519;SDS011;9904;52.246;20.898;2022-09-12T08:08:09;11.10;;;4.80;;
19519;SDS011;9904;52.246;20.898;2022-09-12T08:10:36;11.73;;;5.10;;
19519;SDS011;9904;52.246;20.898;2022-09-12T08:13:02;10.03;;;4.70;;
19519;SDS011;9904;52.246;20.898;2022-09-12T08:15:29;11.07;;;5.43;;
19519;SDS011;9904;52.246;20.898;2022-09-12T08:17:57;12.73;;;6.87;;
19519;SDS011;9904;52.246;20.898;2022-09-12T08:20:23;15.83;;;7.37;;
19519;SDS011;9904;52.246;20.898;2022-09-12T08:22:53;11.30;;;5.77;;
19519;SDS011;9904;52.246;20.898;2022-09-12T08:25:20;7.13;;;4.57;;
19519;SDS011;9904;52.246;20.898;2022-09-12T08:27:46;10.63;;;4.60;;
19519;SDS011;9904;52.246;20.898;2022-09-12T08:30:13;14.10;;;4.67;;
19519;SDS011;9904;52.246;20.898;2022-09-12T08:32:40;14.07;;;4.67;;
19519;SDS011;9904;52.246;20.898;2022-09-12T08:35:06;13.17;;;5.43;;
19519;SDS011;9904;52.246;20.898;2022-09-12T08:37:33;10.80;;;4.90;;
19519;SDS011;9904;52.246;20.898;2022-09-12T08:39:59;9.13;;;4.20;;
19519;SDS011;9904;52.246;20.898;2022-09-12T08:42:38;7.30;;;4.03;;
19519;SDS011;9904;52.246;20.898;2022-09-12T08:45:56;7.67;;;3.80;;
19519;SDS011;9904;52.246;20.898;2022-09-12T08:48:02;9.77;;;4.73;;
19519;SDS011;9904;52.246;20.898;2022-09-12T08:50:30;10.47;;;4.53;;
19519;SDS011;9904;52.246;20.898;2022-09-12T08:52:59;8.17;;;3.87;;
19519;SDS011;9904;52.246;20.898;2022-09-12T08:58:32;9.43;;;4.27;;
19519;SDS011;9904;52.246;20.898;2022-09-12T09:01:09;9.63;;;3.87;;
19519;SDS011;9904;52.246;20.898;2022-09-12T09:12:25;10.60;;;4.13;;
19519;SDS011;9904;52.246;20.898;2022-09-12T09:17:48;7.70;;;4.53;;
19519;SDS011;9904;52.246;20.898;2022-09-12T09:22:59;14.10;;;8.20;;
19519;SDS011;9904;52.246;20.898;2022-09-12T09:25:35;14.27;;;8.20;;
19519;SDS011;9904;52.246;20.898;2022-09-12T09:28:14;17.03;;;5.90;;
19519;SDS011;9904;52.246;20.898;2022-09-12T09:30:42;12.67;;;5.00;;
19519;SDS011;9904;52.246;20.898;2022-09-12T09:33:18;8.83;;;4.57;;
19519;SDS011;9904;52.246;20.898;2022-09-12T09:36:11;7.57;;;4.07;;
19519;SDS011;9904;52.246;20.898;2022-09-12T09:38:56;9.87;;;4.10;;
19519;SDS011;9904;52.246;20.898;2022-09-12T09:41:46;9.87;;;3.77;;
19519;SDS011;9904;52.246;20.898;2022-09-12T09:44:17;9.20;;;3.50;;
19519;SDS011;9904;52.246;20.898;2022-09-12T09:46:44;7.93;;;4.10;;
19519;SDS011;9904;52.246;20.898;2022-09-12T09:49:11;9.37;;;3.97;;
19519;SDS011;9904;52.246;20.898;2022-09-12T09:51:38;10.63;;;3.70;;
19519;SDS011;9904;52.246;20.898;2022-09-12T09:54:12;8.63;;;3.50;;
19519;SDS011;9904;52.246;20.898;2022-09-12T09:56:46;8.57;;;3.87;;
19519;SDS011;9904;52.246;20.898;2022-09-12T09:59:16;10.97;;;4.70;;
19519;SDS011;9904;52.246;20.898;2022-09-12T10:01:44;9.87;;;4.30;;
19519;SDS011;9904;52.246;20.898;2022-09-12T10:04:28;11.43;;;4.13;;
19519;SDS011;9904;52.246;20.898;2022-09-12T10:06:58;8.80;;;4.10;;
19519;SDS011;9904;52.246;20.898;2022-09-12T10:09:30;6.97;;;3.20;;
19519;SDS011;9904;52.246;20.898;2022-09-12T10:12:12;10.23;;;4.23;;
19519;SDS011;9904;52.246;20.898;2022-09-12T10:14:56;6.33;;;3.50;;
19519;SDS011;9904;52.246;20.898;2022-09-12T10:17:28;7.43;;;3.43;;
19519;SDS011;9904;52.246;20.898;2022-09-12T10:20:00;5.70;;;3.10;;
19519;SDS011;9904;52.246;20.898;2022-09-12T10:22:47;6.63;;;3.30;;
19519;SDS011;9904;52.246;20.898;2022-09-12T10:25:14;10.73;;;3.90;;
19519;SDS011;9904;52.246;20.898;2022-09-12T10:27:42;6.97;;;3.47;;
19519;SDS011;9904;52.246;20.898;2022-09-12T10:30:18;8.37;;;3.23;;
19519;SDS011;9904;52.246;20.898;2022-09-12T10:32:47;14.23;;;3.60;;
19519;SDS011;9904;52.246;20.898;2022-09-12T10:35:18;8.33;;;3.20;;
19519;SDS011;9904;52.246;20.898;2022-09-12T10:40:28;8.03;;;3.67;;
19519;SDS011;9904;52.246;20.898;2022-09-12T10:43:00;8.20;;;3.30;;
19519;SDS011;9904;52.246;20.898;2022-09-12T10:45:33;8.33;;;3.20;;
19519;SDS011;9904;52.246;20.898;2022-09-12T10:48:01;18.33;;;3.83;;
19519;SDS011;9904;52.246;20.898;2022-09-12T10:50:46;9.43;;;3.80;;
19519;SDS011;9904;52.246;20.898;2022-09-12T10:53:26;9.37;;;3.60;;
19519;SDS011;9904;52.246;20.898;2022-09-12T10:56:12;6.60;;;3.37;;
19519;SDS011;9904;52.246;20.898;2022-09-12T11:10:03;9.50;;;3.70;;
19519;SDS011;9904;52.246;20.898;2022-09-12T11:15:32;10.83;;;5.37;;
19519;SDS011;9904;52.246;20.898;2022-09-12T11:21:25;7.47;;;4.57;;
19519;SDS011;9904;52.246;20.898;2022-09-12T11:26:57;12.63;;;4.47;;
19519;SDS011;9904;52.246;20.898;2022-09-12T11:29:53;10.23;;;4.40;;
19519;SDS011;9904;52.246;20.898;2022-09-12T11:37:49;8.03;;;3.53;;
19519;SDS011;9904;52.246;20.898;2022-09-12T11:40:37;5.47;;;3.63;;
19519;SDS011;9904;52.246;20.898;2022-09-12T11:46:13;13.67;;;5.50;;
19519;SDS011;9904;52.246;20.898;2022-09-12T11:48:45;11.33;;;5.27;;
19519;SDS011;9904;52.246;20.898;2022-09-12T11:51:37;11.53;;;4.87;;
19519;SDS011;9904;52.246;20.898;2022-09-12T11:56:49;9.47;;;3.40;;
19519;SDS011;9904;52.246;20.898;2022-09-12T11:59:29;6.83;;;3.50;;
19519;SDS011;9904;52.246;20.898;2022-09-12T12:01:58;10.77;;;3.77;;
19519;SDS011;9904;52.246;20.898;2022-09-12T12:04:28;5.67;;;2.97;;
19519;SDS011;9904;52.246;20.898;2022-09-12T12:07:02;10.07;;;3.17;;
19519;SDS011;9904;52.246;20.898;2022-09-12T12:09:31;6.83;;;3.53;;
19519;SDS011;9904;52.246;20.898;2022-09-12T12:11:59;7.43;;;3.27;;
19519;SDS011;9904;52.246;20.898;2022-09-12T12:14:30;11.23;;;3.20;;
19519;SDS011;9904;52.246;20.898;2022-09-12T12:17:02;8.57;;;3.00;;
19519;SDS011;9904;52.246;20.898;2022-09-12T12:19:35;6.63;;;3.03;;
19519;SDS011;9904;52.246;20.898;2022-09-12T12:22:05;12.50;;;3.30;;
19519;SDS011;9904;52.246;20.898;2022-09-12T12:24:32;5.13;;;2.80;;
19519;SDS011;9904;52.246;20.898;2022-09-12T12:27:03;9.50;;;3.20;;
19519;SDS011;9904;52.246;20.898;2022-09-12T12:36:57;6.53;;;2.43;;
19519;SDS011;9904;52.246;20.898;2022-09-12T12:42:00;7.83;;;2.70;;
19519;SDS011;9904;52.246;20.898;2022-09-12T12:47:16;6.07;;;3.00;;
19519;SDS011;9904;52.246;20.898;2022-09-12T12:49:55;9.20;;;3.40;;
19519;SDS011;9904;52.246;20.898;2022-09-12T12:52:24;4.83;;;2.60;;
19519;SDS011;9904;52.246;20.898;2022-09-12T12:54:56;8.13;;;2.57;;
19519;SDS011;9904;52.246;20.898;2022-09-12T12:57:44;4.80;;;2.60;;
19519;SDS011;9904;52.246;20.898;2022-09-12T13:00:24;7.07;;;2.53;;
19519;SDS011;9904;52.246;20.898;2022-09-12T13:05:25;6.50;;;2.47;;
19519;SDS011;9904;52.246;20.898;2022-09-12T13:07:57;6.10;;;2.90;;
19519;SDS011;9904;52.246;20.898;2022-09-12T13:10:29;6.13;;;2.70;;
19519;SDS011;9904;52.246;20.898;2022-09-12T13:12:56;7.10;;;3.07;;
19519;SDS011;9904;52.246;20.898;2022-09-12T13:18:06;6.77;;;2.77;;
19519;SDS011;9904;52.246;20.898;2022-09-12T13:20:37;7.53;;;2.60;;
19519;SDS011;9904;52.246;20.898;2022-09-12T13:23:20;8.67;;;2.80;;
19519;SDS011;9904;52.246;20.898;2022-09-12T13:25:52;5.77;;;2.80;;
19519;SDS011;9904;52.246;20.898;2022-09-12T13:28:20;6.70;;;3.20;;
19519;SDS011;9904;52.246;20.898;2022-09-12T13:38:56;7.57;;;2.90;;
19519;SDS011;9904;52.246;20.898;2022-09-12T13:44:07;8.57;;;2.50;;
19519;SDS011;9904;52.246;20.898;2022-09-12T13:46:36;5.63;;;3.03;;
19519;SDS011;9904;52.246;20.898;2022-09-12T13:49:10;7.60;;;4.70;;
19519;SDS011;9904;52.246;20.898;2022-09-12T13:51:41;6.90;;;2.80;;
19519;SDS011;9904;52.246;20.898;2022-09-12T13:54:11;7.77;;;2.73;;
19519;SDS011;9904;52.246;20.898;2022-09-12T13:56:46;9.67;;;2.30;;
19519;SDS011;9904;52.246;20.898;2022-09-12T13:59:13;4.87;;;2.70;;
19519;SDS011;9904;52.246;20.898;2022-09-12T14:01:41;4.73;;;2.53;;
19519;SDS011;9904;52.246;20.898;2022-09-12T14:07:12;5.87;;;2.83;;
19519;SDS011;9904;52.246;20.898;2022-09-12T14:09:43;4.27;;;2.60;;
19519;SDS011;9904;52.246;20.898;2022-09-12T14:12:14;5.00;;;2.67;;
19519;SDS011;9904;52.246;20.898;2022-09-12T14:14:49;8.07;;;2.50;;
19519;SDS011;9904;52.246;20.898;2022-09-12T14:17:16;4.23;;;2.37;;
19519;SDS011;9904;52.246;20.898;2022-09-12T14:19:49;4.93;;;2.57;;
19519;SDS011;9904;52.246;20.898;2022-09-12T14:22:16;3.77;;;2.43;;
19519;SDS011;9904;52.246;20.898;2022-09-12T14:24:46;4.20;;;2.30;;
19519;SDS011;9904;52.246;20.898;2022-09-12T14:27:18;5.83;;;2.90;;
19519;SDS011;9904;52.246;20.898;2022-09-12T14:35:36;4.33;;;2.17;;
19519;SDS011;9904;52.246;20.898;2022-09-12T14:40:41;10.73;;;2.90;;
19519;SDS011;9904;52.246;20.898;2022-09-12T14:45:52;4.33;;;2.70;;
19519;SDS011;9904;52.246;20.898;2022-09-12T14:48:20;4.83;;;2.90;;
19519;SDS011;9904;52.246;20.898;2022-09-12T14:50:48;6.70;;;2.13;;
19519;SDS011;9904;52.246;20.898;2022-09-12T14:55:46;4.97;;;2.53;;
19519;SDS011;9904;52.246;20.898;2022-09-12T15:08:56;5.40;;;2.60;;
19519;SDS011;9904;52.246;20.898;2022-09-12T15:11:24;5.57;;;2.53;;
19519;SDS011;9904;52.246;20.898;2022-09-12T15:13:50;6.63;;;2.53;;
19519;SDS011;9904;52.246;20.898;2022-09-12T15:16:17;5.07;;;2.40;;
19519;SDS011;9904;52.246;20.898;2022-09-12T15:18:44;4.93;;;2.50;;
19519;SDS011;9904;52.246;20.898;2022-09-12T15:21:11;4.73;;;2.47;;
19519;SDS011;9904;52.246;20.898;2022-09-12T15:23:44;5.50;;;2.67;;
19519;SDS011;9904;52.246;20.898;2022-09-12T15:26:13;4.13;;;2.17;;
19519;SDS011;9904;52.246;20.898;2022-09-12T15:28:41;6.47;;;2.50;;
19519;SDS011;9904;52.246;20.898;2022-09-12T15:31:12;6.70;;;2.37;;
19519;SDS011;9904;52.246;20.898;2022-09-12T15:33:44;5.40;;;2.30;;
19519;SDS011;9904;52.246;20.898;2022-09-12T15:36:12;5.60;;;2.23;;
19519;SDS011;9904;52.246;20.898;2022-09-12T15:38:43;4.93;;;2.50;;
19519;SDS011;9904;52.246;20.898;2022-09-12T15:41:12;3.40;;;2.17;;
19519;SDS011;9904;52.246;20.898;2022-09-12T15:43:41;6.60;;;3.23;;
19519;SDS011;9904;52.246;20.898;2022-09-12T15:46:09;5.27;;;2.70;;
19519;SDS011;9904;52.246;20.898;2022-09-12T15:48:37;5.53;;;2.80;;
19519;SDS011;9904;52.246;20.898;2022-09-12T15:51:04;6.97;;;2.90;;
19519;SDS011;9904;52.246;20.898;2022-09-12T15:53:40;7.10;;;3.20;;
19519;SDS011;9904;52.246;20.898;2022-09-12T15:56:07;6.53;;;2.67;;
19519;SDS011;9904;52.246;20.898;2022-09-12T15:58:34;4.47;;;2.40;;
19519;SDS011;9904;52.246;20.898;2022-09-12T16:01:00;4.40;;;2.47;;
19519;SDS011;9904;52.246;20.898;2022-09-12T16:03:27;3.53;;;2.10;;
19519;SDS011;9904;52.246;20.898;2022-09-12T16:05:59;5.50;;;2.73;;
19519;SDS011;9904;52.246;20.898;2022-09-12T16:08:27;3.67;;;2.30;;
19519;SDS011;9904;52.246;20.898;2022-09-12T16:10:58;5.57;;;2.60;;
19519;SDS011;9904;52.246;20.898;2022-09-12T16:13:26;10.33;;;4.03;;
19519;SDS011;9904;52.246;20.898;2022-09-12T16:15:56;6.13;;;3.30;;
19519;SDS011;9904;52.246;20.898;2022-09-12T16:18:24;4.80;;;3.00;;
19519;SDS011;9904;52.246;20.898;2022-09-12T16:20:51;4.03;;;2.60;;
19519;SDS011;9904;52.246;20.898;2022-09-12T16:23:21;4.53;;;3.10;;
19519;SDS011;9904;52.246;20.898;2022-09-12T16:26:03;4.43;;;3.33;;
19519;SDS011;9904;52.246;20.898;2022-09-12T16:28:31;7.00;;;3.83;;
19519;SDS011;9904;52.246;20.898;2022-09-12T16:30:59;6.13;;;3.17;;
19519;SDS011;9904;52.246;20.898;2022-09-12T16:33:27;10.77;;;4.10;;
19519;SDS011;9904;52.246;20.898;2022-09-12T16:36:01;7.40;;;3.93;;
19519;SDS011;9904;52.246;20.898;2022-09-12T16:38:31;14.13;;;4.83;;
19519;SDS011;9904;52.246;20.898;2022-09-12T16:40:58;11.83;;;4.50;;
19519;SDS011;9904;52.246;20.898;2022-09-12T16:43:26;9.97;;;4.50;;
19519;SDS011;9904;52.246;20.898;2022-09-12T16:46:26;7.60;;;4.00;;
19519;SDS011;9904;52.246;20.898;2022-09-12T16:48:47;8.23;;;4.30;;
19519;SDS011;9904;52.246;20.898;2022-09-12T16:51:20;9.50;;;4.63;;
19519;SDS011;9904;52.246;20.898;2022-09-12T16:53:47;5.90;;;4.33;;
19519;SDS011;9904;52.246;20.898;2022-09-12T16:56:14;9.40;;;4.80;;
19519;SDS011;9904;52.246;20.898;2022-09-12T16:58:41;8.43;;;4.50;;
19519;SDS011;9904;52.246;20.898;2022-09-12T17:01:09;10.87;;;5.40;;
19519;SDS011;9904;52.246;20.898;2022-09-12T17:03:46;9.20;;;4.33;;
19519;SDS011;9904;52.246;20.898;2022-09-12T17:06:14;10.60;;;5.90;;
19519;SDS011;9904;52.246;20.898;2022-09-12T17:08:44;8.30;;;4.80;;
19519;SDS011;9904;52.246;20.898;2022-09-12T17:11:19;7.33;;;4.43;;
19519;SDS011;9904;52.246;20.898;2022-09-12T17:13:48;8.10;;;4.63;;
19519;SDS011;9904;52.246;20.898;2022-09-12T17:16:31;7.37;;;4.77;;
19519;SDS011;9904;52.246;20.898;2022-09-12T17:18:59;11.93;;;5.50;;
19519;SDS011;9904;52.246;20.898;2022-09-12T17:21:26;7.57;;;4.93;;
19519;SDS011;9904;52.246;20.898;2022-09-12T17:23:53;11.50;;;4.73;;
19519;SDS011;9904;52.246;20.898;2022-09-12T17:26:19;9.73;;;5.43;;
19519;SDS011;9904;52.246;20.898;2022-09-12T17:28:46;11.50;;;5.77;;
19519;SDS011;9904;52.246;20.898;2022-09-12T17:31:13;10.97;;;5.57;;